createdAt,value
2022-12-18T00:00:16.606Z,30.3
2022-12-18T00:02:14.066Z,29.6
2022-12-18T00:04:11.629Z,29.4
2022-12-18T00:06:08.992Z,32.9
2022-12-18T00:08:14.478Z,34.5
2022-12-18T00:10:11.925Z,34.1
2022-12-18T00:14:06.774Z,30.3
2022-12-18T00:16:04.348Z,34.7
2022-12-18T00:18:01.703Z,32.8
2022-12-18T00:19:59.080Z,29.9
2022-12-18T00:22:04.504Z,31.4
2022-12-18T00:24:02.004Z,33.2
2022-12-18T00:25:59.354Z,30.2
2022-12-18T00:27:56.808Z,30.6
2022-12-18T00:29:54.290Z,29.1
2022-12-18T00:31:51.707Z,34.5
2022-12-18T00:33:52.705Z,30.5
2022-12-18T00:35:54.558Z,33.1
2022-12-18T00:37:52.114Z,29.3
2022-12-18T00:39:49.466Z,29.4
2022-12-18T00:43:44.383Z,28.6
2022-12-18T00:45:41.874Z,29.8
2022-12-18T00:51:42.196Z,31.7
2022-12-18T00:53:40.116Z,27.8
2022-12-18T00:56:45.785Z,33.4
2022-12-18T00:58:37.175Z,33.2
2022-12-18T01:00:34.690Z,35.2
2022-12-18T01:02:40.298Z,32.6
2022-12-18T01:04:37.452Z,29.3
2022-12-18T01:06:34.896Z,30.1
2022-12-18T01:08:32.353Z,29.7
2022-12-18T01:10:29.797Z,28.3
2022-12-18T01:16:30.249Z,33.1
2022-12-18T01:18:27.621Z,33.3
2022-12-18T01:20:25.069Z,33.3
2022-12-18T01:22:22.531Z,25.5
2022-12-18T01:24:19.957Z,28.4
2022-12-18T01:26:17.332Z,28.3
2022-12-18T01:28:14.759Z,26.3
2022-12-18T01:30:20.217Z,30.6
2022-12-18T01:32:17.649Z,31.4
2022-12-18T01:34:15.112Z,30
2022-12-18T01:36:12.502Z,30.3
2022-12-18T01:44:10.161Z,27.7
2022-12-18T01:46:07.617Z,28.5
2022-12-18T01:50:21.825Z,33
2022-12-18T01:58:19.470Z,28.3
2022-12-18T02:02:14.457Z,26.6
2022-12-18T02:04:11.758Z,28
2022-12-18T02:06:09.159Z,26.9
2022-12-18T02:08:06.610Z,29.6
2022-12-18T02:10:11.900Z,26.5
2022-12-18T02:12:09.315Z,25.3
2022-12-18T02:14:06.748Z,24.5
2022-12-18T02:16:04.191Z,25.5
2022-12-18T02:18:01.636Z,27.8
2022-12-18T02:21:56.463Z,26.3
2022-12-18T02:24:01.791Z,27.1
2022-12-18T02:27:56.668Z,25.5
2022-12-18T02:31:51.483Z,24.4
2022-12-18T02:33:48.923Z,23
2022-12-18T02:35:46.334Z,23.6
2022-12-18T02:37:51.774Z,25.1
2022-12-18T02:39:49.200Z,23.6
2022-12-18T02:41:46.578Z,25.5
2022-12-18T02:42:49.265Z,26.1
2022-12-18T02:44:46.706Z,28
2022-12-18T02:46:44.150Z,25.7
2022-12-18T02:48:41.552Z,27.9
2022-12-18T02:54:41.824Z,25.2
2022-12-18T02:56:39.217Z,23.8
2022-12-18T03:02:31.721Z,25.9
2022-12-18T03:06:34.360Z,21.5
2022-12-18T03:08:31.779Z,24.3
2022-12-18T03:10:29.166Z,23.9
2022-12-18T03:12:26.595Z,24.1
2022-12-18T03:14:24.023Z,25.2
2022-12-18T03:16:21.509Z,20.8
2022-12-18T03:18:26.882Z,26
2022-12-18T03:20:24.248Z,24.7
2022-12-18T03:22:21.671Z,19.9
2022-12-18T03:24:19.101Z,21.7
2022-12-18T03:26:16.417Z,21.4
2022-12-18T03:28:13.854Z,24.2
2022-12-18T03:30:11.240Z,24.7
2022-12-18T03:34:14.078Z,23.7
2022-12-18T03:36:11.497Z,25
2022-12-18T03:37:14.185Z,25
2022-12-18T03:39:11.591Z,27.2
2022-12-18T03:45:11.813Z,28.5
2022-12-18T03:49:06.643Z,20.4
2022-12-18T03:51:03.953Z,24.1
2022-12-18T03:53:01.370Z,23.5
2022-12-18T03:54:58.781Z,26.3
2022-12-18T03:56:56.203Z,24.3
2022-12-18T03:59:01.577Z,25.9
2022-12-18T04:00:58.996Z,21.1
2022-12-18T04:02:56.402Z,22.7
2022-12-18T04:04:53.729Z,22.5
2022-12-18T04:06:51.072Z,23.1
2022-12-18T04:08:48.482Z,25
2022-12-18T04:12:51.296Z,26.1
2022-12-18T04:20:40.918Z,25.9
2022-12-18T04:22:38.436Z,23.1
2022-12-18T04:24:35.712Z,23.4
2022-12-18T04:26:41.078Z,24.6
2022-12-18T04:28:38.389Z,26.4
2022-12-18T04:30:35.818Z,24
2022-12-18T04:31:38.457Z,25.5
2022-12-18T04:33:36.011Z,23.7
2022-12-18T04:35:33.225Z,21.4
2022-12-18T04:37:30.598Z,24.7
2022-12-18T04:39:36.017Z,24.9
2022-12-18T04:41:33.454Z,24.6
2022-12-18T04:43:30.829Z,23.7
2022-12-18T04:47:25.628Z,22.6
2022-12-18T04:51:26.100Z,20.2
2022-12-18T04:55:24.726Z,18.5
2022-12-18T04:57:22.127Z,22.2
2022-12-18T04:59:19.559Z,22.4
2022-12-18T05:01:17.077Z,22
2022-12-18T05:03:14.391Z,21.8
2022-12-18T05:05:11.758Z,23
2022-12-18T05:07:17.085Z,21.6
2022-12-18T05:09:14.514Z,22
2022-12-18T05:11:11.906Z,22.7
2022-12-18T05:13:09.258Z,20.2
2022-12-18T05:15:06.644Z,19.8
2022-12-18T05:17:03.931Z,24.3
2022-12-18T05:19:01.355Z,20.7
2022-12-18T05:21:06.722Z,20.5
2022-12-18T05:23:04.117Z,22
2022-12-18T05:25:01.514Z,21.8
2022-12-18T05:27:22.271Z,26.3
2022-12-18T05:29:19.651Z,23.1
2022-12-18T05:33:22.505Z,22.1
2022-12-18T05:35:19.841Z,23.5
2022-12-18T05:41:12.025Z,25.5
2022-12-18T05:43:09.412Z,21.4
2022-12-18T05:45:06.796Z,22.7
2022-12-18T05:47:12.183Z,19.2
2022-12-18T05:49:09.569Z,25.8
2022-12-18T05:51:06.854Z,19.7
2022-12-18T05:53:04.248Z,21.8
2022-12-18T05:55:01.658Z,21.5
2022-12-18T05:56:59.045Z,21
2022-12-18T05:58:56.439Z,20.3
2022-12-18T06:01:01.829Z,20.9
2022-12-18T06:04:56.591Z,22.2
2022-12-18T06:06:54.006Z,20.1
2022-12-18T06:08:51.356Z,20.1
2022-12-18T06:10:48.751Z,21.4
2022-12-18T06:12:46.160Z,18.3
2022-12-18T06:14:51.556Z,20.2
2022-12-18T06:16:48.926Z,19.4
2022-12-18T06:18:46.068Z,19.1
2022-12-18T06:19:48.761Z,19.4
2022-12-18T06:21:46.380Z,20.4
2022-12-18T06:23:43.680Z,20.6
2022-12-18T06:25:40.990Z,18.9
2022-12-18T06:27:46.384Z,23.3
2022-12-18T06:29:43.774Z,20.5
2022-12-18T06:31:41.255Z,22.9
2022-12-18T06:33:39.018Z,21.1
2022-12-18T06:39:30.711Z,20.2
2022-12-18T06:49:30.142Z,18.8
2022-12-18T06:51:22.958Z,20.9
2022-12-18T06:53:20.286Z,20
2022-12-18T06:55:25.637Z,18.6
2022-12-18T06:57:23.004Z,19.5
2022-12-18T06:59:20.408Z,17.1
2022-12-18T07:01:17.958Z,17.9
2022-12-18T07:03:15.236Z,16.2
2022-12-18T07:05:12.563Z,16.4
2022-12-18T07:07:09.935Z,19.1
2022-12-18T07:09:15.222Z,18.8
2022-12-18T07:11:12.604Z,18.6
2022-12-18T07:13:09.967Z,20.1
2022-12-18T07:14:12.655Z,19.2
2022-12-18T07:18:07.460Z,20.5
2022-12-18T07:20:04.863Z,15.7
2022-12-18T07:22:10.243Z,17.9
2022-12-18T07:24:07.608Z,18.3
2022-12-18T07:26:04.987Z,17.7
2022-12-18T07:28:02.371Z,18.7
2022-12-18T07:31:57.188Z,15.6
2022-12-18T07:33:54.544Z,17.6
2022-12-18T07:35:59.918Z,15.5
2022-12-18T07:37:57.342Z,19
2022-12-18T07:39:54.712Z,21.2
2022-12-18T07:41:52.111Z,17.1
2022-12-18T07:43:49.507Z,16.9
2022-12-18T07:45:46.953Z,16.6
2022-12-18T07:51:46.988Z,17
2022-12-18T07:53:44.430Z,16.5
2022-12-18T07:56:05.361Z,19.7
2022-12-18T07:57:50.800Z,16.3
2022-12-18T07:59:36.572Z,17.4
2022-12-18T08:01:34.113Z,17.8
2022-12-18T08:03:39.670Z,15.1
2022-12-18T08:05:36.724Z,17.7
2022-12-18T08:07:34.126Z,17.5
2022-12-18T08:08:36.840Z,17.5
2022-12-18T08:10:34.256Z,18.1
2022-12-18T08:12:31.614Z,18.5
2022-12-18T08:14:28.985Z,16.3
2022-12-18T08:16:34.481Z,20
2022-12-18T08:18:31.839Z,17.4
2022-12-18T08:20:29.199Z,18.3
2022-12-18T08:22:26.579Z,16.2
2022-12-18T08:24:23.997Z,21.8
2022-12-18T08:28:18.779Z,18.2
2022-12-18T08:30:24.255Z,20.4
2022-12-18T08:32:21.593Z,19.1
2022-12-18T08:34:18.928Z,16.3
2022-12-18T08:36:16.341Z,17.1
2022-12-18T08:42:10.309Z,26.1
2022-12-18T08:44:13.953Z,20.6
2022-12-18T08:46:11.420Z,15.3
2022-12-18T08:48:08.728Z,15.3
2022-12-18T08:50:06.121Z,15.9
2022-12-18T08:52:03.538Z,14.8
2022-12-18T08:54:00.949Z,13.7
2022-12-18T08:58:03.758Z,16.3
2022-12-18T09:04:21.839Z,16.3
2022-12-18T09:06:19.259Z,15
2022-12-18T09:08:16.649Z,16.6
2022-12-18T09:10:22.089Z,13.3
2022-12-18T09:12:19.532Z,12
2022-12-18T09:14:16.836Z,16.7
2022-12-18T09:16:14.292Z,13.8
2022-12-18T09:18:11.576Z,12
2022-12-18T09:20:09.006Z,15
2022-12-18T09:22:06.449Z,13.1
2022-12-18T09:24:11.786Z,13.3
2022-12-18T09:26:09.176Z,15.7
2022-12-18T09:28:06.592Z,13.3
2022-12-18T09:30:04.038Z,13.1
2022-12-18T09:32:01.485Z,14
2022-12-18T09:33:58.872Z,13.1
2022-12-18T09:35:56.239Z,16.3
2022-12-18T09:38:01.669Z,15
2022-12-18T09:39:59.115Z,14.6
2022-12-18T09:41:56.536Z,13
2022-12-18T09:43:53.994Z,13.2
2022-12-18T09:45:51.508Z,14.3
2022-12-18T09:47:48.880Z,12.3
2022-12-18T09:53:49.126Z,13.3
2022-12-18T09:55:46.596Z,12
2022-12-18T09:56:49.302Z,11.9
2022-12-18T09:58:46.779Z,14.5
2022-12-18T10:00:44.239Z,12.9
2022-12-18T10:04:47.179Z,13.4
2022-12-18T10:06:44.611Z,15
2022-12-18T10:08:42.356Z,15.8
2022-12-18T10:10:39.451Z,13.4
2022-12-18T10:14:34.250Z,14.6
2022-12-18T10:16:31.626Z,12.5
2022-12-18T10:18:36.969Z,13.9
2022-12-18T10:20:34.434Z,12.9
2022-12-18T10:22:31.916Z,11.8
2022-12-18T10:24:29.375Z,11
2022-12-18T10:26:26.888Z,13.7
2022-12-18T10:28:24.374Z,11.2
2022-12-18T10:30:21.850Z,13.1
2022-12-18T10:32:27.200Z,11.8
2022-12-18T10:34:26.157Z,13.8
2022-12-18T10:36:23.590Z,13.1
2022-12-18T10:44:13.154Z,12.6
2022-12-18T10:46:18.621Z,11.8
2022-12-18T10:48:15.931Z,11.7
2022-12-18T10:50:13.424Z,12.2
2022-12-18T10:51:16.152Z,12.8
2022-12-18T10:53:13.548Z,14.9
2022-12-18T10:55:11.051Z,9.7
2022-12-18T10:57:08.575Z,12.2
2022-12-18T10:59:14.060Z,10.3
2022-12-18T11:01:11.825Z,13.2
2022-12-18T11:03:09.192Z,11.2
2022-12-18T11:05:06.610Z,12.1
2022-12-18T11:07:04.096Z,11
2022-12-18T11:09:01.422Z,10.7
2022-12-18T11:10:58.820Z,10.9
2022-12-18T11:13:04.289Z,10.9
2022-12-18T11:18:56.447Z,11.7
2022-12-18T11:20:58.356Z,13.1
2022-12-18T11:22:51.413Z,8.5
2022-12-18T11:25:08.423Z,11.9
2022-12-18T11:26:59.470Z,11.2
2022-12-18T11:28:51.649Z,11.7
2022-12-18T11:30:49.171Z,10
2022-12-18T11:32:46.579Z,11
2022-12-18T11:34:44.025Z,13.6
2022-12-18T11:36:41.517Z,11.9
2022-12-18T11:38:39.513Z,11.2
2022-12-18T11:40:44.594Z,10.3
2022-12-18T11:42:42.103Z,18.6
2022-12-18T11:44:39.522Z,9.7
2022-12-18T11:45:42.186Z,10
2022-12-18T11:47:39.711Z,10.6
2022-12-18T11:49:37.265Z,10.6
2022-12-18T11:51:34.818Z,12
2022-12-18T11:53:40.119Z,11
2022-12-18T11:55:37.544Z,9.9
2022-12-18T11:57:34.994Z,11.8
2022-12-18T11:59:32.535Z,11.5
2022-12-18T12:01:30.046Z,12.4
2022-12-18T12:03:27.402Z,12.2
2022-12-18T12:05:24.933Z,10.3
2022-12-18T12:07:30.239Z,10
2022-12-18T12:09:27.708Z,10.9
2022-12-18T12:11:25.239Z,10
2022-12-18T12:13:22.683Z,11.2
2022-12-18T12:19:14.989Z,8
2022-12-18T12:21:20.417Z,10.4
2022-12-18T12:23:17.846Z,9.9
2022-12-18T12:25:15.404Z,10.1
2022-12-18T12:27:12.946Z,10.3
2022-12-18T12:29:10.813Z,10.3
2022-12-18T12:31:07.826Z,11.2
2022-12-18T12:33:05.274Z,9
2022-12-18T12:35:10.602Z,12.1
2022-12-18T12:37:08.085Z,9.2
2022-12-18T12:39:05.630Z,9.9
2022-12-18T12:41:32.509Z,10.1
2022-12-18T12:43:29.976Z,9.8
2022-12-18T12:45:27.585Z,10.2
2022-12-18T12:47:32.890Z,10.6
2022-12-18T12:49:31.141Z,11
2022-12-18T12:51:27.790Z,10.7
2022-12-18T12:53:25.186Z,9.7
2022-12-18T12:55:22.665Z,8.9
2022-12-18T12:57:20.107Z,10.8
2022-12-18T12:59:17.637Z,8.5
2022-12-18T13:01:24.161Z,10.8
2022-12-18T13:03:20.419Z,10.8
2022-12-18T13:05:17.888Z,11.2
2022-12-18T13:07:15.341Z,11.1
2022-12-18T13:09:12.775Z,9.8
2022-12-18T13:11:10.289Z,12.2
2022-12-18T13:13:09.370Z,12.2
2022-12-18T13:15:13.369Z,11.2
2022-12-18T13:17:10.802Z,9.4
2022-12-18T13:23:03.262Z,8.6
2022-12-18T13:25:00.722Z,10.3
2022-12-18T13:29:03.507Z,10.4
2022-12-18T13:31:00.946Z,11.1
2022-12-18T13:34:25.051Z,11.3
2022-12-18T13:35:58.702Z,9.9
2022-12-18T13:37:56.115Z,9.3
2022-12-18T13:39:53.567Z,11.7
2022-12-18T13:41:58.923Z,11.9
2022-12-18T13:43:56.362Z,10.5
2022-12-18T13:45:53.829Z,13.4
2022-12-18T13:47:51.379Z,11.5
2022-12-18T13:49:48.870Z,10.6
2022-12-18T13:51:46.407Z,11.4
2022-12-18T13:53:44.121Z,12.4
2022-12-18T13:57:46.649Z,10.5
2022-12-18T14:01:41.712Z,10.8
2022-12-18T14:05:36.630Z,10.3
2022-12-18T14:07:38.297Z,8.8
2022-12-18T14:09:39.556Z,9.8
2022-12-18T14:11:36.995Z,11.3
2022-12-18T14:13:34.461Z,12.5
2022-12-18T14:15:31.912Z,9.9
2022-12-18T14:17:29.353Z,11.7
2022-12-18T14:19:26.846Z,10.7
2022-12-18T14:21:24.288Z,10.6
2022-12-18T14:23:29.738Z,11.1
2022-12-18T14:25:27.287Z,11.1
2022-12-18T14:27:24.734Z,10.7
2022-12-18T14:28:27.439Z,12.3
2022-12-18T14:30:25.021Z,15.2
2022-12-18T14:32:22.334Z,14.4
2022-12-18T14:34:19.786Z,10.9
2022-12-18T14:36:25.223Z,14.8
2022-12-18T14:38:22.710Z,12.3
2022-12-18T14:40:20.233Z,10
2022-12-18T14:44:15.187Z,9.9
2022-12-18T14:46:12.659Z,13.1
2022-12-18T14:48:10.212Z,12.2
2022-12-18T14:50:15.571Z,12.5
2022-12-18T14:54:10.565Z,13.5
2022-12-18T14:58:05.506Z,13.8
2022-12-18T15:00:03.084Z,12.6
2022-12-18T15:02:00.642Z,11.6
2022-12-18T15:09:58.367Z,12.9
2022-12-18T15:11:55.800Z,13.5
2022-12-18T15:13:53.365Z,13.5
2022-12-18T15:15:50.910Z,11.4
2022-12-18T15:17:56.166Z,10.6
2022-12-18T15:19:53.610Z,12.2
2022-12-18T15:21:51.081Z,10.6
2022-12-18T15:22:53.741Z,10
2022-12-18T15:24:51.248Z,12.4
2022-12-18T15:26:48.689Z,11.1
2022-12-18T15:28:46.148Z,11.9
2022-12-18T15:30:51.580Z,10.3
2022-12-18T15:32:48.952Z,10.8
2022-12-18T15:40:38.916Z,11.8
2022-12-18T15:42:36.451Z,11.2
2022-12-18T15:44:41.810Z,10.4
2022-12-18T15:46:39.331Z,11.7
2022-12-18T15:52:31.748Z,10.4
2022-12-18T15:54:29.202Z,10.4
2022-12-18T16:00:29.585Z,11.7
2022-12-18T16:02:27.294Z,12.1
2022-12-18T16:04:24.515Z,10.2
2022-12-18T16:06:21.956Z,12.3
2022-12-18T16:08:19.500Z,14.1
2022-12-18T16:10:16.970Z,13.3
2022-12-18T16:12:22.418Z,13.9
2022-12-18T16:14:19.882Z,14.2
2022-12-18T16:16:18.959Z,13.6
2022-12-18T16:18:39.487Z,15.1
2022-12-18T16:22:34.523Z,16.6
2022-12-18T16:24:39.979Z,13
2022-12-18T16:26:37.421Z,12.4
2022-12-18T16:28:34.930Z,13.8
2022-12-18T16:30:38.099Z,12.9
2022-12-18T16:32:29.931Z,10.6
2022-12-18T16:34:28.579Z,12.9
2022-12-18T16:36:24.879Z,13.3
2022-12-18T16:38:30.192Z,13.1
2022-12-18T16:40:27.630Z,15
2022-12-18T16:42:25.211Z,14.5
2022-12-18T16:44:22.686Z,12.6
2022-12-18T16:46:20.302Z,15
2022-12-18T16:48:17.796Z,16.4
2022-12-18T16:52:20.685Z,14.5
2022-12-18T16:54:19.721Z,15.8
2022-12-18T16:58:13.256Z,15.3
2022-12-18T17:00:10.704Z,16.1
2022-12-18T17:02:08.293Z,16.1
2022-12-18T17:04:05.682Z,14.9
2022-12-18T17:06:10.946Z,15.4
2022-12-18T17:08:08.411Z,16.4
2022-12-18T17:10:05.877Z,16.3
2022-12-18T17:11:08.555Z,13.2
2022-12-18T17:13:05.994Z,13.6
2022-12-18T17:17:20.802Z,14.2
2022-12-18T17:21:03.764Z,15.1
2022-12-18T17:23:01.351Z,15.5
2022-12-18T17:24:58.784Z,18.1
2022-12-18T17:26:56.273Z,15.8
2022-12-18T17:28:53.793Z,14.6
2022-12-18T17:30:51.346Z,16.7
2022-12-18T17:34:54.058Z,19.4
2022-12-18T17:36:51.622Z,18.1
2022-12-18T17:38:49.101Z,16.7
2022-12-18T17:42:44.056Z,17.7
2022-12-18T17:44:41.506Z,16.7
2022-12-18T17:46:46.928Z,19.2
2022-12-18T17:48:44.356Z,17.6
2022-12-18T17:50:41.925Z,16.6
2022-12-18T17:52:39.366Z,17.9
2022-12-18T17:54:36.857Z,16.4
2022-12-18T17:56:34.371Z,16.8
2022-12-18T17:58:31.812Z,17.8
2022-12-18T18:00:37.288Z,15.4
2022-12-18T18:04:32.217Z,18.2
2022-12-18T18:05:34.874Z,18.5
2022-12-18T18:07:32.399Z,16.9
2022-12-18T18:09:29.860Z,17.1
2022-12-18T18:11:27.287Z,17.7
2022-12-18T18:15:30.228Z,19.9
2022-12-18T18:17:27.711Z,17.8
2022-12-18T18:19:25.209Z,18.9
2022-12-18T18:21:22.641Z,19
2022-12-18T18:23:20.157Z,18.6
2022-12-18T18:25:17.611Z,16.1
2022-12-18T18:29:20.577Z,18.7
2022-12-18T18:31:18.097Z,18.4
2022-12-18T18:33:15.510Z,22.6
2022-12-18T18:35:30.892Z,20.8
2022-12-18T18:37:10.465Z,17.9
2022-12-18T18:39:08.356Z,17.7
2022-12-18T18:41:13.346Z,18.5
2022-12-18T18:43:10.823Z,20.3
2022-12-18T18:45:08.308Z,17.8
2022-12-18T18:47:07.680Z,15.8
2022-12-18T18:49:03.260Z,17.7
2022-12-18T18:51:00.718Z,19.5
2022-12-18T18:52:58.176Z,19.4
2022-12-18T18:55:13.237Z,20.8
2022-12-18T18:57:19.911Z,22.3
2022-12-18T18:58:58.508Z,17
2022-12-18T19:01:58.867Z,18.3
2022-12-18T19:03:56.234Z,19.1
2022-12-18T19:05:53.696Z,18
2022-12-18T19:07:59.181Z,20.1
2022-12-18T19:11:54.098Z,18.9
2022-12-18T19:13:51.703Z,21.9
2022-12-18T19:15:49.173Z,19.6
2022-12-18T19:17:47.113Z,18.8
2022-12-18T19:19:44.107Z,19.2
2022-12-18T19:21:49.472Z,18.5
2022-12-18T19:23:46.952Z,22.5
2022-12-18T19:27:41.881Z,17.9
2022-12-18T19:29:39.381Z,17.6
2022-12-18T19:31:37.454Z,19.1
2022-12-18T19:33:43.169Z,19
2022-12-18T19:35:39.892Z,19.5
2022-12-18T19:41:32.986Z,22
2022-12-18T19:45:27.256Z,17.8
2022-12-18T19:49:30.166Z,23.5
2022-12-18T19:51:27.658Z,20.2
2022-12-18T19:53:25.155Z,18.2
2022-12-18T19:55:52.040Z,19
2022-12-18T19:57:49.527Z,21.9
2022-12-18T19:59:47.015Z,21.8
2022-12-18T20:01:52.514Z,19.7
2022-12-18T20:03:52.301Z,19.9
2022-12-18T20:05:47.323Z,17.8
2022-12-18T20:07:44.785Z,19.8
2022-12-18T20:09:42.300Z,19.6
2022-12-18T20:11:41.989Z,20.7
2022-12-18T20:13:37.240Z,17.7
2022-12-18T20:15:45.278Z,19.1
2022-12-18T20:17:40.209Z,19.4
2022-12-18T20:19:37.685Z,18.6
2022-12-18T20:21:35.155Z,17.7
2022-12-18T20:23:37.278Z,19.9
2022-12-18T20:25:30.129Z,20
2022-12-18T20:27:27.722Z,16.7
2022-12-18T20:29:33.065Z,19.3
2022-12-18T20:31:30.639Z,17.8
2022-12-18T20:33:28.025Z,20.8
2022-12-18T20:35:25.484Z,18.9
2022-12-18T20:39:20.450Z,21.1
2022-12-18T20:41:17.929Z,17.6
2022-12-18T20:43:23.284Z,19.7
2022-12-18T20:45:20.789Z,21.2
2022-12-18T20:47:18.276Z,19.4
2022-12-18T20:48:26.386Z,18.2
2022-12-18T20:50:18.456Z,20.1
2022-12-18T20:52:15.910Z,20.8
2022-12-18T20:54:13.398Z,19.7
2022-12-18T20:56:21.587Z,23.1
2022-12-18T20:58:16.262Z,19.9
2022-12-18T21:00:13.766Z,17.3
2022-12-18T21:02:11.444Z,19.5
2022-12-18T21:04:08.808Z,21.9
2022-12-18T21:06:06.288Z,21.6
2022-12-18T21:08:03.775Z,22
2022-12-18T21:12:06.612Z,20.5
2022-12-18T21:14:04.113Z,19.7
2022-12-18T21:16:01.616Z,22.8
2022-12-18T21:17:59.168Z,20.2
2022-12-18T21:19:56.649Z,21.6
2022-12-18T21:21:54.226Z,22.9
2022-12-18T21:23:59.612Z,21.7
2022-12-18T21:25:57.110Z,17.6
2022-12-18T21:27:54.572Z,25.3
2022-12-18T21:29:52.039Z,21.4
2022-12-18T21:31:49.629Z,19.5
2022-12-18T21:33:47.120Z,26.2
2022-12-18T21:35:44.597Z,23
2022-12-18T21:37:49.977Z,23.2
2022-12-18T21:39:47.539Z,24.7
2022-12-18T21:41:45.043Z,24
2022-12-18T21:42:47.834Z,18.7
2022-12-18T21:44:45.452Z,20.9
2022-12-18T21:46:42.979Z,24.6
2022-12-18T21:48:40.562Z,23.6
2022-12-18T21:50:46.016Z,23.1
2022-12-18T21:52:43.527Z,24
2022-12-18T21:54:40.981Z,20.3
2022-12-18T21:58:37.539Z,22.7
2022-12-18T22:04:38.159Z,22
2022-12-18T22:08:33.093Z,25
2022-12-18T22:10:30.570Z,21.3
2022-12-18T22:12:28.163Z,21.8
2022-12-18T22:14:25.730Z,24.7
2022-12-18T22:16:23.345Z,24.5
2022-12-18T22:18:28.553Z,23.4
2022-12-18T22:20:26.022Z,21.3
2022-12-18T22:22:23.479Z,22.4
2022-12-18T22:24:20.967Z,25.6
2022-12-18T22:26:18.433Z,23.3
2022-12-18T22:28:15.904Z,23.8
2022-12-18T22:34:20.581Z,23.2
2022-12-18T22:36:13.799Z,26
2022-12-18T22:37:16.492Z,28
2022-12-18T22:39:14.071Z,23.7
2022-12-18T22:41:11.588Z,26
2022-12-18T22:43:09.026Z,26.3
2022-12-18T22:45:14.404Z,23.6
2022-12-18T22:47:11.867Z,25.4
2022-12-18T22:49:09.331Z,25.8
2022-12-18T22:51:06.938Z,23.1
2022-12-18T22:56:59.340Z,22.9
2022-12-18T23:01:02.195Z,24.9
2022-12-18T23:03:00.922Z,25.6
2022-12-18T23:06:54.802Z,26
2022-12-18T23:08:56.017Z,26.9
2022-12-18T23:10:49.775Z,25.6
2022-12-18T23:12:55.242Z,27.5
2022-12-18T23:14:52.706Z,27.3
2022-12-18T23:16:50.797Z,24.8
2022-12-18T23:18:47.657Z,26.9
2022-12-18T23:20:45.143Z,24.6
2022-12-18T23:22:42.608Z,28.8
2022-12-18T23:24:40.088Z,25.4
2022-12-18T23:26:45.472Z,24.8
2022-12-18T23:28:42.951Z,28.9
2022-12-18T23:30:40.559Z,27.1
2022-12-18T23:33:07.601Z,26.5
2022-12-18T23:35:05.182Z,25.3
2022-12-18T23:37:02.687Z,26.9
2022-12-18T23:39:08.055Z,26.4
2022-12-18T23:41:05.535Z,27.5
2022-12-18T23:43:02.997Z,26.3
2022-12-18T23:45:00.524Z,27.9
2022-12-18T23:48:55.458Z,29.5
2022-12-18T23:50:52.924Z,24.8
2022-12-18T23:56:53.227Z,24.7
2022-12-18T23:58:52.108Z,24.8
